createdAt,value
2023-10-01T05:55:35.843Z,87.61
2023-10-01T05:56:30.871Z,89.03
2023-10-01T06:01:28.884Z,87.10
2023-10-01T06:01:53.934Z,87.61
2023-10-01T06:02:54.824Z,88.32
2023-10-01T06:04:09.021Z,88.21
2023-10-01T06:21:04.694Z,83.31
2023-10-01T06:27:07.194Z,83.87
2023-10-01T06:28:12.898Z,83.91
2023-10-01T06:41:45.391Z,85.64
2023-10-01T06:42:37.714Z,85.44
2023-10-01T06:47:13.420Z,84.72
2023-10-01T06:48:05.039Z,84.93
2023-10-01T06:49:04.677Z,83.61
2023-10-01T06:50:04.875Z,84.52
2023-10-01T06:53:04.270Z,82.15
2023-10-01T06:53:44.055Z,82.66
2023-10-01T06:54:44.080Z,84.48
2023-10-01T06:55:43.206Z,84.08
2023-10-01T06:56:46.586Z,82.76
2023-10-01T06:57:43.210Z,82.01
2023-10-01T07:01:27.117Z,82.82
2023-10-01T07:02:22.503Z,82.31
2023-10-01T07:07:12.237Z,84.75
2023-10-01T07:09:35.728Z,83.53
2023-10-01T07:19:50.546Z,82.44
2023-10-01T07:23:33.688Z,80.11
2023-10-01T07:24:33.806Z,82.81
2023-10-01T07:26:53.881Z,80.78
2023-10-01T07:27:46.620Z,82.75
2023-10-01T07:28:46.307Z,82.24
2023-10-01T07:36:44.858Z,82.68
2023-10-01T07:37:42.969Z,83.49
2023-10-01T07:42:32.910Z,83.23
2023-10-01T07:45:14.840Z,83.43
2023-10-01T07:46:12.700Z,82.48
2023-10-01T07:58:40.114Z,77.83
2023-10-01T08:12:02.936Z,80.50
2023-10-01T08:13:01.280Z,81.11
2023-10-01T08:14:00.426Z,78.88
2023-10-01T08:15:00.467Z,80.46
2023-10-01T08:19:35.179Z,77.22
2023-10-01T08:22:06.471Z,75.74
2023-10-01T08:53:55.937Z,74.59
2023-10-01T08:54:44.491Z,76.97
2023-10-01T08:55:43.292Z,75.93
2023-10-01T08:59:22.045Z,74.82
2023-10-01T09:00:32.705Z,75.72
2023-10-01T09:08:45.553Z,74.49
2023-10-01T09:12:29.059Z,75.09
2023-10-01T09:17:53.295Z,79.62
2023-10-01T09:18:32.012Z,79.22
2023-10-01T09:19:31.014Z,80.73
2023-10-01T09:20:31.046Z,78.61
2023-10-01T09:21:31.014Z,78.51
2023-10-01T09:27:08.500Z,77.27
2023-10-01T09:28:02.920Z,77.23
2023-10-01T09:29:02.198Z,76.49
2023-10-01T09:30:02.058Z,76.35
2023-10-01T09:42:02.510Z,74.44
2023-10-01T09:43:00.183Z,75.71
2023-10-01T09:48:11.522Z,75.11
2023-10-01T09:52:27.858Z,72.53
2023-10-01T09:53:00.333Z,70.29
2023-10-01T09:56:47.597Z,67.60
2023-10-01T09:57:47.557Z,67.29
2023-10-01T09:58:43.931Z,67.29
2023-10-01T09:59:42.789Z,70.19
2023-10-01T10:00:42.901Z,70.12
2023-10-01T10:08:39.531Z,72.27
2023-10-01T10:09:33.488Z,74.01
2023-10-01T10:25:31.731Z,74.40
2023-10-01T10:26:29.265Z,75.97
2023-10-01T10:27:29.599Z,74.13
2023-10-01T10:28:41.201Z,74.03
2023-10-01T10:29:29.336Z,73.80
2023-10-01T10:30:29.153Z,70.69
2023-10-01T10:31:29.313Z,72.60
2023-10-01T10:46:04.744Z,67.86
2023-10-01T10:47:01.219Z,67.83
2023-10-01T10:47:59.741Z,69.43
2023-10-01T10:48:59.703Z,70.12
2023-10-01T10:56:19.298Z,69.29
2023-10-01T10:57:00.998Z,69.59
2023-10-01T10:58:01.001Z,70.53
2023-10-01T10:59:01.084Z,69.53
2023-10-01T11:00:00.894Z,69.96
2023-10-01T11:01:00.866Z,70.36
2023-10-01T11:02:00.962Z,73.25
2023-10-01T11:03:00.921Z,70.56
2023-10-01T11:04:00.828Z,69.86
2023-10-01T11:05:00.983Z,68.09
2023-10-01T11:14:09.381Z,71.72
2023-10-01T11:15:10.301Z,67.10
2023-10-01T11:16:09.911Z,66.66
2023-10-01T11:17:08.783Z,68.99
2023-10-01T11:18:08.349Z,67.96
2023-10-01T11:19:08.309Z,71.56
2023-10-01T11:20:08.300Z,69.96
2023-10-01T11:22:52.258Z,67.96
2023-10-01T11:23:53.201Z,70.19
2023-10-01T11:24:53.926Z,69.29
2023-10-01T11:25:53.558Z,71.92
2023-10-01T11:26:52.724Z,71.23
2023-10-01T11:27:52.739Z,70.03
2023-10-01T11:28:52.732Z,69.43
2023-10-01T11:29:52.718Z,70.53
2023-10-01T11:30:52.885Z,70.73
2023-10-01T11:31:52.879Z,70.96
2023-10-01T11:32:52.949Z,70.86
2023-10-01T11:38:13.170Z,72.50
2023-10-01T11:39:12.334Z,73.00
2023-10-01T11:40:19.742Z,71.19
2023-10-01T12:09:05.191Z,74.90
2023-10-01T12:10:06.574Z,72.69
2023-10-01T12:11:05.824Z,74.56
2023-10-01T12:12:05.775Z,71.16
2023-10-01T12:13:05.778Z,73.56
2023-10-01T12:14:05.974Z,71.66
2023-10-01T12:31:55.801Z,71.09
2023-10-01T12:41:00.754Z,72.79
2023-10-01T12:42:01.605Z,73.22
2023-10-01T12:43:01.540Z,70.69
2023-10-01T13:13:37.223Z,70.09
2023-10-01T13:14:43.556Z,69.39
2023-10-01T13:15:38.993Z,71.69
2023-10-01T13:16:37.794Z,71.39
2023-10-01T13:17:37.766Z,68.29
2023-10-01T13:18:37.745Z,70.89
2023-10-01T13:19:37.776Z,67.09
2023-10-01T13:20:37.701Z,68.59
2023-10-01T13:21:37.739Z,70.19
2023-10-01T13:22:37.743Z,68.59
2023-10-01T13:23:37.684Z,69.09
2023-10-01T13:24:37.696Z,68.39
2023-10-01T13:25:37.723Z,69.29
2023-10-01T13:26:37.679Z,71.19
2023-10-01T13:27:37.629Z,70.66
2023-10-01T13:42:26.833Z,69.93
2023-10-01T13:43:18.133Z,71.03
2023-10-01T13:44:18.061Z,72.23
2023-10-01T13:45:17.847Z,74.13
2023-10-01T13:46:17.893Z,74.43
2023-10-01T14:00:58.021Z,74.73
2023-10-01T14:01:58.865Z,73.43
2023-10-01T14:02:58.926Z,73.13
2023-10-01T14:04:01.561Z,71.33
2023-10-01T14:04:58.661Z,73.33
2023-10-01T14:10:11.564Z,72.23
2023-10-01T14:11:12.372Z,73.23
2023-10-01T14:12:12.151Z,74.23
2023-10-01T14:13:12.212Z,74.80
2023-10-01T14:14:12.143Z,72.73
2023-10-01T14:15:12.115Z,74.93
2023-10-01T14:16:12.168Z,76.14
2023-10-01T14:17:12.180Z,73.43
2023-10-01T14:18:23.129Z,74.54
2023-10-01T14:19:12.118Z,74.80
2023-10-01T14:20:12.080Z,73.53
2023-10-01T14:21:12.088Z,74.54
2023-10-01T14:22:12.123Z,73.53
2023-10-01T14:23:12.079Z,75.63
2023-10-01T14:48:47.653Z,75.34
2023-10-01T14:49:48.546Z,75.27
2023-10-01T14:50:48.303Z,75.47
2023-10-01T14:51:48.296Z,74.87
2023-10-01T14:52:48.312Z,74.47
2023-10-01T14:53:48.292Z,76.98
2023-10-01T14:54:48.241Z,75.27
2023-10-01T14:55:48.360Z,76.74
2023-10-01T14:56:48.310Z,77.94
2023-10-01T14:57:48.220Z,77.04
2023-10-01T14:58:48.288Z,76.43
2023-10-01T14:59:48.236Z,79.34
2023-10-01T15:00:48.196Z,79.38
2023-10-01T15:01:48.288Z,78.18
2023-10-01T15:02:48.256Z,79.78
2023-10-01T15:03:48.276Z,80.98
2023-10-01T15:04:48.208Z,80.08
2023-10-01T15:05:48.231Z,80.38
2023-10-01T15:06:48.122Z,80.98
2023-10-01T15:07:48.148Z,80.18
2023-10-01T15:08:48.117Z,79.08
2023-10-01T15:09:48.082Z,78.88
2023-10-01T15:10:48.110Z,80.28
2023-10-01T15:11:48.077Z,80.68
2023-10-01T15:12:57.976Z,80.68
2023-10-01T15:13:48.154Z,79.12
2023-10-01T15:14:55.351Z,80.22
2023-10-01T15:15:48.015Z,79.92
2023-10-01T15:16:48.934Z,80.92
2023-10-01T15:17:48.112Z,80.42
2023-10-01T15:18:48.068Z,80.92
2023-10-01T15:19:49.731Z,77.51
2023-10-01T15:20:48.099Z,80.32
2023-10-01T15:21:48.021Z,80.02
2023-10-01T15:22:48.044Z,77.95
2023-10-01T15:23:48.018Z,81.26
2023-10-01T15:24:47.925Z,81.56
2023-10-01T15:25:47.984Z,83.67
2023-10-01T15:26:47.920Z,83.17
2023-10-01T15:27:47.949Z,84.88
2023-10-01T15:28:47.917Z,84.67
2023-10-01T15:29:47.867Z,84.97
2023-10-01T15:30:48.019Z,85.17
2023-10-01T15:31:47.961Z,84.27
2023-10-01T15:32:48.042Z,83.27
2023-10-01T15:33:47.825Z,83.21
2023-10-01T15:34:47.892Z,83.01
2023-10-01T15:35:47.819Z,84.21
2023-10-01T15:36:48.119Z,84.21
2023-10-01T15:37:47.841Z,87.12
2023-10-01T15:38:47.803Z,85.72
2023-10-01T15:39:47.779Z,85.52
2023-10-01T15:40:47.767Z,85.31
2023-10-01T15:41:48.736Z,85.82
2023-10-01T15:46:59.462Z,87.46
2023-10-01T15:48:01.163Z,87.77
2023-10-01T15:49:00.330Z,88.37
2023-10-01T15:50:00.080Z,88.37
2023-10-01T15:51:00.068Z,88.11
2023-10-01T15:52:00.042Z,88.11
2023-10-01T15:53:00.056Z,88.61
2023-10-01T15:54:00.176Z,87.81
2023-10-01T15:55:00.014Z,88.71
2023-10-01T15:56:00.136Z,88.41
2023-10-01T15:56:59.996Z,88.31
2023-10-01T15:58:00.018Z,87.60
2023-10-01T15:59:00.181Z,88.31
2023-10-01T15:59:59.975Z,89.26
2023-10-01T16:00:59.981Z,89.26
2023-10-01T16:02:00.084Z,89.06
2023-10-01T16:03:00.112Z,87.85
2023-10-01T16:04:00.171Z,88.55
2023-10-01T16:05:00.022Z,88.15
2023-10-01T16:05:59.927Z,87.95
2023-10-01T16:27:53.277Z,90.49
2023-10-01T16:28:54.208Z,91.85
2023-10-01T16:29:53.786Z,91.54
2023-10-01T16:30:53.797Z,91.74
2023-10-01T16:31:53.827Z,91.64
2023-10-01T16:32:53.802Z,92.05
2023-10-01T16:33:53.879Z,91.99
2023-10-01T16:34:53.744Z,92.09
2023-10-01T16:35:53.815Z,92.49
2023-10-01T16:36:53.683Z,92.69
2023-10-01T16:37:53.747Z,92.49
2023-10-01T16:38:53.678Z,92.09
2023-10-01T16:39:53.687Z,92.33
2023-10-01T16:40:53.733Z,92.23
2023-10-01T16:41:53.637Z,93.14
2023-10-01T16:42:53.632Z,93.24
2023-10-01T16:43:54.016Z,92.54
2023-10-01T16:44:53.630Z,92.94
2023-10-01T16:45:53.629Z,92.88
2023-10-01T16:46:53.654Z,92.47
2023-10-01T16:47:53.683Z,92.88
2023-10-01T16:48:53.665Z,93.49
2023-10-01T16:49:53.684Z,93.89
2023-10-01T16:50:53.541Z,93.69
2023-10-01T16:51:53.515Z,94.80
2023-10-01T16:52:53.572Z,94.04
2023-10-01T16:53:53.565Z,94.24
2023-10-01T16:54:53.511Z,94.64
2023-10-01T16:55:53.561Z,94.34
2023-10-01T16:56:53.490Z,94.94
2023-10-01T16:57:53.452Z,94.54
2023-10-01T16:58:53.501Z,94.48
2023-10-01T16:59:53.429Z,94.18
2023-10-01T17:00:53.500Z,94.28
2023-10-01T17:01:53.525Z,94.18
2023-10-01T17:02:53.550Z,94.28
2023-10-01T17:03:53.486Z,94.79
2023-10-01T17:04:53.405Z,95.09
2023-10-01T17:05:53.408Z,95.14
2023-10-01T17:06:53.355Z,95.74
2023-10-01T17:07:53.418Z,95.54
2023-10-01T17:08:53.349Z,95.64
2023-10-01T17:09:53.370Z,95.34
2023-10-01T17:10:53.379Z,95.14
2023-10-01T17:11:53.423Z,95.74
2023-10-01T17:12:53.353Z,95.89
2023-10-01T17:13:53.391Z,96.80
2023-10-01T17:24:53.366Z,96.94
2023-10-01T17:25:54.321Z,97.75
2023-10-01T17:28:44.929Z,97.14
2023-10-01T17:41:20.691Z,98.50
2023-10-01T17:42:21.550Z,97.19
2023-10-01T17:43:21.325Z,97.19
2023-10-01T17:44:21.280Z,97.49
2023-10-01T17:45:21.228Z,97.09
2023-10-01T17:46:21.303Z,97.19
2023-10-01T17:47:21.759Z,96.69
2023-10-01T17:48:21.161Z,96.58
2023-10-01T17:49:21.149Z,96.28
2023-10-01T18:08:28.758Z,97.64
2023-10-01T18:16:01.556Z,98.29
2023-10-01T18:16:39.971Z,98.60
2023-10-01T18:17:37.212Z,98.29
2023-10-01T18:23:19.730Z,98.70
2023-10-01T18:28:40.799Z,98.74
2023-10-01T18:39:59.969Z,96.57
2023-10-01T18:40:51.210Z,97.38
2023-10-01T18:41:52.068Z,97.08
2023-10-01T18:42:51.066Z,97.28
2023-10-01T18:43:51.105Z,97.18
2023-10-01T18:44:51.034Z,96.98
2023-10-01T18:45:51.084Z,96.47
2023-10-01T18:46:51.127Z,97.49
2023-10-01T18:49:16.674Z,96.67
2023-10-01T18:50:00.444Z,96.67
2023-10-01T18:55:15.911Z,96.27
2023-10-01T18:56:14.626Z,97.18
2023-10-01T19:01:03.917Z,95.97
2023-10-01T19:04:42.220Z,93.19
2023-10-01T19:05:39.468Z,92.99
2023-10-01T19:06:38.706Z,93.55
2023-10-01T19:09:12.061Z,92.03
2023-10-01T19:10:06.589Z,91.99
2023-10-01T19:11:06.446Z,92.24
2023-10-01T19:12:06.443Z,91.63
2023-10-01T19:13:06.432Z,92.54
2023-10-01T19:14:06.459Z,92.54
2023-10-01T19:15:06.414Z,93.04
2023-10-01T19:19:36.539Z,92.44
2023-10-01T19:20:39.343Z,92.64
2023-10-01T19:29:17.960Z,95.06
2023-10-01T19:30:18.319Z,93.43
2023-10-01T19:31:15.834Z,93.54
2023-10-01T19:32:15.847Z,91.77
2023-10-01T19:33:15.812Z,91.77
2023-10-01T19:34:15.794Z,91.83
2023-10-01T19:35:15.756Z,91.73
2023-10-01T19:38:14.707Z,89.46
2023-10-01T19:40:59.970Z,88.51
2023-10-01T19:41:46.388Z,87.90
2023-10-01T19:42:46.373Z,87.81
2023-10-01T19:43:46.435Z,87.26
2023-10-01T19:44:46.302Z,87.96
2023-10-01T19:45:46.291Z,87.15
2023-10-01T19:46:46.445Z,87.05
2023-10-01T19:47:46.264Z,86.65
2023-10-01T19:48:46.238Z,86.35
2023-10-01T19:49:46.240Z,85.90
2023-10-01T20:00:08.652Z,85.25
2023-10-01T20:01:06.089Z,84.85
2023-10-01T20:02:05.911Z,84.95
2023-10-01T20:03:05.757Z,84.95
2023-10-01T20:04:05.796Z,85.16
2023-10-01T20:05:05.641Z,86.30
2023-10-01T20:09:02.159Z,86.21
2023-10-01T20:10:01.452Z,85.19
2023-10-01T20:10:59.978Z,85.10
2023-10-01T20:17:22.943Z,84.45
2023-10-01T20:18:07.914Z,84.35
2023-10-01T20:19:07.519Z,84.25
2023-10-01T20:20:07.481Z,84.05
2023-10-01T20:21:07.775Z,84.25
2023-10-01T20:22:07.410Z,83.64
2023-10-01T20:23:07.511Z,83.80
2023-10-01T20:24:08.024Z,84.11
2023-10-01T20:30:15.750Z,85.05
2023-10-01T20:31:18.233Z,84.75
2023-10-01T20:32:14.070Z,84.85
2023-10-01T20:33:13.999Z,84.65
2023-10-01T20:34:13.907Z,84.45
2023-10-01T20:35:13.981Z,84.45
2023-10-01T20:36:13.947Z,84.85
2023-10-01T20:37:13.981Z,84.75
2023-10-01T20:38:13.970Z,84.55
2023-10-01T20:39:13.922Z,84.45
2023-10-01T20:40:13.963Z,84.35
2023-10-01T20:41:27.630Z,85.25
2023-10-01T20:42:17.210Z,84.85
2023-10-01T20:47:19.372Z,84.25
2023-10-01T20:48:19.897Z,85.36
2023-10-01T20:49:19.862Z,85.05
2023-10-01T20:50:19.801Z,85.96
2023-10-01T20:51:35.668Z,85.19
2023-10-01T20:52:21.536Z,85.70
2023-10-01T20:53:19.757Z,85.40
2023-10-01T20:54:19.726Z,85.70
2023-10-01T20:55:20.034Z,85.40
2023-10-01T20:56:19.768Z,85.50
2023-10-01T20:57:19.732Z,85.90
2023-10-01T20:58:19.703Z,86.10
2023-10-01T20:59:19.708Z,86.30
2023-10-01T21:00:19.658Z,86.41
2023-10-01T21:01:19.725Z,86.65
2023-10-01T21:02:19.754Z,86.95
2023-10-01T21:04:36.981Z,87.66
2023-10-01T21:05:34.646Z,88.92
2023-10-01T21:06:33.608Z,88.61
2023-10-01T21:07:34.511Z,88.61
2023-10-01T21:10:23.199Z,89.22
2023-10-01T21:11:17.238Z,90.58
2023-10-01T21:12:12.425Z,90.88
2023-10-01T21:13:12.451Z,90.17
2023-10-01T21:14:12.506Z,90.92
2023-10-01T21:15:12.397Z,92.44
2023-10-01T21:23:20.528Z,95.26
2023-10-01T21:24:16.824Z,94.85
2023-10-01T21:25:16.798Z,95.40
2023-10-01T21:26:16.795Z,96.22
2023-10-01T21:27:16.903Z,95.30
2023-10-01T21:28:16.761Z,95.81
2023-10-01T21:29:16.814Z,97.17
2023-10-01T21:30:16.795Z,97.07
2023-10-01T21:31:16.851Z,97.27
2023-10-01T21:32:18.953Z,97.27
2023-10-01T21:35:26.369Z,96.56
2023-10-01T21:40:34.436Z,98.23
2023-10-01T21:41:34.234Z,98.79
2023-10-01T21:42:32.325Z,98.58
2023-10-01T21:43:32.327Z,99.29
2023-10-01T21:44:32.281Z,99.08
2023-10-01T21:45:32.409Z,98.88
2023-10-01T21:50:22.216Z,99.99
2023-10-01T21:51:05.971Z,99.99
2023-10-01T21:55:28.989Z,99.95
2023-10-01T21:56:29.961Z,99.64
2023-10-01T21:57:28.399Z,98.99
2023-10-01T21:58:28.449Z,98.79
2023-10-01T21:59:28.336Z,98.07
2023-10-01T22:00:28.397Z,98.28
2023-10-01T22:01:28.415Z,98.28
2023-10-01T22:02:28.571Z,98.28
2023-10-01T22:03:29.454Z,98.48
2023-10-01T22:04:28.436Z,98.48
2023-10-01T22:08:10.329Z,98.79
2023-10-01T22:09:11.268Z,98.68
2023-10-01T22:10:09.100Z,98.58
2023-10-01T22:11:09.162Z,98.79
2023-10-01T22:12:10.202Z,98.38
2023-10-01T22:13:09.110Z,98.48
2023-10-01T22:14:10.218Z,98.48
2023-10-01T22:15:09.156Z,98.68
2023-10-01T22:22:01.293Z,99.33
2023-10-01T22:26:54.935Z,99.69
2023-10-01T22:27:51.185Z,99.99
2023-10-01T22:28:52.982Z,99.99
2023-10-01T22:29:50.571Z,99.99
2023-10-01T22:30:50.575Z,99.99
2023-10-01T22:33:38.758Z,99.99
2023-10-01T22:34:34.505Z,99.99
2023-10-01T22:37:16.919Z,99.99
2023-10-01T22:38:14.386Z,99.99
2023-10-01T22:41:40.953Z,99.99
2023-10-01T22:42:43.548Z,99.99
2023-10-01T22:43:39.981Z,99.99
2023-10-01T22:44:39.404Z,99.99
2023-10-01T22:45:39.429Z,99.99
2023-10-01T22:46:39.375Z,99.99
2023-10-01T22:47:39.426Z,99.99
2023-10-01T22:48:39.335Z,99.99
2023-10-01T22:49:39.368Z,99.99
2023-10-01T22:50:39.264Z,99.99
2023-10-01T22:55:31.401Z,99.99
2023-10-01T22:56:30.813Z,99.99
2023-10-01T23:02:06.546Z,99.33
2023-10-01T23:02:35.178Z,99.13
2023-10-01T23:08:20.099Z,99.29
2023-10-01T23:09:18.293Z,99.08
2023-10-01T23:10:18.076Z,98.68
2023-10-01T23:11:18.089Z,98.99
2023-10-01T23:18:08.715Z,99.33
2023-10-01T23:20:40.190Z,99.49
2023-10-01T23:21:40.272Z,99.69
2023-10-01T23:22:38.780Z,99.99
2023-10-01T23:23:38.746Z,99.99
2023-10-01T23:24:38.742Z,99.99
2023-10-01T23:25:38.725Z,99.99
2023-10-01T23:32:28.952Z,99.99
2023-10-01T23:36:00.867Z,99.99
2023-10-01T23:36:52.414Z,99.99
2023-10-01T23:37:51.003Z,99.99
2023-10-01T23:38:50.859Z,99.99
2023-10-01T23:39:50.776Z,99.99
2023-10-01T23:40:50.781Z,99.99
2023-10-01T23:41:50.740Z,99.99
2023-10-01T23:42:50.822Z,99.99
2023-10-01T23:43:51.553Z,99.99
2023-10-01T23:44:50.739Z,99.99
2023-10-01T23:45:50.747Z,99.99
2023-10-01T23:46:50.755Z,99.99
2023-10-01T23:55:18.911Z,99.99
2023-10-01T23:56:17.038Z,99.99
2023-10-01T23:57:17.144Z,99.99
2023-10-01T23:58:29.760Z,99.99
2023-10-01T23:59:36.950Z,99.99
